createdAt,value
2022-10-04T00:08:23.733Z,0.00
2022-10-04T00:18:30.362Z,0.00
2022-10-04T00:28:38.152Z,0.00
2022-10-04T00:38:44.766Z,0.00
2022-10-04T00:48:51.359Z,0.00
2022-10-04T00:58:57.832Z,0.00
2022-10-04T01:09:05.528Z,0.00
2022-10-04T01:19:11.396Z,0.00
2022-10-04T01:29:18.133Z,0.00
2022-10-04T01:39:24.806Z,0.00
2022-10-04T01:49:32.816Z,0.00
2022-10-04T01:59:38.874Z,0.00
2022-10-04T02:09:46.722Z,0.00
2022-10-04T02:19:52.813Z,0.00
2022-10-04T02:30:00.878Z,0.00
2022-10-04T02:40:07.312Z,0.00
2022-10-04T02:50:15.242Z,0.00
2022-10-04T03:00:21.376Z,0.00
2022-10-04T03:10:29.327Z,0.00
2022-10-04T03:20:35.580Z,0.00
2022-10-04T03:30:43.446Z,0.00
2022-10-04T03:40:49.574Z,0.00
2022-10-04T03:50:59.772Z,0.00
2022-10-04T04:01:05.743Z,0.00
2022-10-04T04:11:13.946Z,0.00
2022-10-04T04:21:20.152Z,0.00
2022-10-04T04:31:26.608Z,0.00
2022-10-04T04:41:33.024Z,0.00
2022-10-04T04:51:40.983Z,0.00
2022-10-04T05:01:47.262Z,4.00
2022-10-04T05:11:55.475Z,12.00
2022-10-04T05:22:01.922Z,40.00
2022-10-04T05:32:09.832Z,76.00
2022-10-04T05:42:15.818Z,160.00
2022-10-04T05:52:22.301Z,184.00
2022-10-04T06:02:29.065Z,408.00
2022-10-04T06:12:35.174Z,436.00
2022-10-04T06:22:43.042Z,460.00
2022-10-04T06:32:49.380Z,488.00
2022-10-04T06:42:55.694Z,528.00
2022-10-04T06:53:02.075Z,612.00
2022-10-04T07:03:09.878Z,708.00
2022-10-04T07:13:16.453Z,792.00
2022-10-04T07:23:28.337Z,876.00
2022-10-04T07:33:35.374Z,1032.00
2022-10-04T07:43:43.409Z,1140.00
2022-10-04T07:53:49.663Z,1436.00
2022-10-04T08:03:57.612Z,1840.00
2022-10-04T08:14:04.023Z,2620.00
2022-10-04T08:24:10.235Z,2132.00
2022-10-04T08:34:16.582Z,1652.00
2022-10-04T08:44:24.524Z,1616.00
2022-10-04T08:54:30.792Z,2264.00
2022-10-04T09:04:38.442Z,2848.00
2022-10-04T09:14:44.834Z,2824.00
2022-10-04T09:24:52.784Z,5884.00
2022-10-04T09:34:59.299Z,12816.00
2022-10-04T09:45:05.344Z,44640.00
2022-10-04T09:55:12.099Z,38528.00
2022-10-04T10:05:18.140Z,53216.00
2022-10-04T10:15:24.516Z,48480.00
2022-10-04T10:25:30.660Z,42720.00
2022-10-04T10:35:37.039Z,42016.00
2022-10-04T10:45:47.826Z,36896.00
2022-10-04T10:55:53.278Z,34816.00
2022-10-04T11:06:01.579Z,33632.00
2022-10-04T11:16:08.251Z,34176.00
2022-10-04T11:26:15.157Z,29984.00
2022-10-04T11:36:21.511Z,27072.00
2022-10-04T11:46:30.894Z,23616.00
2022-10-04T11:56:36.813Z,19552.00
2022-10-04T12:06:45.041Z,5052.00
2022-10-04T12:16:51.783Z,5260.00
2022-10-04T12:26:58.008Z,5956.00
2022-10-04T12:37:04.490Z,6664.00
2022-10-04T12:47:12.504Z,7212.00
2022-10-04T12:57:18.816Z,7696.00
2022-10-04T13:07:26.767Z,8316.00
2022-10-04T13:17:36.086Z,8948.00
2022-10-04T13:27:42.795Z,9448.00
2022-10-04T13:37:49.026Z,9924.00
2022-10-04T13:47:57.164Z,10260.00
2022-10-04T13:58:03.595Z,10576.00
2022-10-04T14:08:11.795Z,11044.00
2022-10-04T14:18:17.883Z,11264.00
2022-10-04T14:28:26.162Z,11624.00
2022-10-04T14:38:32.476Z,11532.00
2022-10-04T14:48:38.648Z,9612.00
2022-10-04T14:58:44.386Z,7832.00
2022-10-04T15:08:51.401Z,6612.00
2022-10-04T15:18:57.356Z,5548.00
2022-10-04T15:29:05.259Z,4248.00
2022-10-04T15:39:11.288Z,1748.00
2022-10-04T15:49:17.146Z,512.00
2022-10-04T15:59:22.865Z,440.00
2022-10-04T16:09:29.264Z,368.00
2022-10-04T16:19:35.618Z,284.00
2022-10-04T16:29:42.040Z,184.00
2022-10-04T16:39:48.103Z,84.00
2022-10-04T16:49:53.953Z,28.00
2022-10-04T17:00:00.579Z,8.00
2022-10-04T17:10:06.744Z,0.00
2022-10-04T17:20:13.593Z,0.00
2022-10-04T17:30:24.546Z,0.00
2022-10-04T17:41:49.036Z,0.00
2022-10-04T17:51:56.693Z,16.00
2022-10-04T18:02:02.675Z,0.00
2022-10-04T18:12:08.434Z,0.00
2022-10-04T18:22:13.857Z,0.00
2022-10-04T18:32:19.277Z,0.00
2022-10-04T18:42:24.446Z,0.00
2022-10-04T18:52:29.628Z,0.00
2022-10-04T19:02:35.440Z,0.00
2022-10-04T19:12:41.127Z,0.00
2022-10-04T19:22:46.572Z,0.00
2022-10-04T19:32:51.596Z,0.00
2022-10-04T19:42:56.977Z,0.00
2022-10-04T19:53:02.635Z,0.00
2022-10-04T20:03:08.329Z,16.00
2022-10-04T20:13:13.793Z,0.00
2022-10-04T20:23:19.303Z,0.00
2022-10-04T20:33:29.702Z,0.00
2022-10-04T20:43:35.038Z,0.00
2022-10-04T20:53:40.330Z,0.00
2022-10-04T21:03:45.973Z,0.00
2022-10-04T21:13:51.481Z,0.00
2022-10-04T21:23:56.850Z,0.00
2022-10-04T21:34:02.295Z,0.00
2022-10-04T21:44:07.529Z,0.00
2022-10-04T21:54:13.200Z,0.00
2022-10-04T22:04:18.733Z,0.00
2022-10-04T22:14:24.110Z,0.00
2022-10-04T22:24:32.141Z,0.00
2022-10-04T22:34:38.547Z,0.00
2022-10-04T22:44:45.050Z,0.00
2022-10-04T22:54:51.379Z,0.00
2022-10-04T23:04:59.131Z,0.00
2022-10-04T23:15:05.523Z,0.00
2022-10-04T23:25:11.827Z,0.00
2022-10-04T23:35:18.136Z,0.00
2022-10-04T23:45:26.111Z,0.00
2022-10-04T23:55:31.956Z,0.00
